Colville Lake, Canada
Current Conditions -  °F | °C
As of 12:00 AM on Saturday 25 Oct 2014 (Local Time) from CYVQ Reporting Station
Light Snow Light Snow  
Wind Chill: 16°   Ceiling: 1300
Heat Index: 16°   Visibility: 6mi
Dew Point: 14°   Wind: 0mph
Humidity: 93%   Direction: NA
Pressure: 29.93"   Gusts: NA
Location:  67.03°N, 126.12°W
Report Text: CYVQ 250600Z 00000KT 6SM -SN BKN013 M09/M10 A2993 RMK SC7 SLP142
Loading
Personal Weather Stations






























Interactive Weather Map
Tropical Storm Tracking
New forecast layout! Learn more

10-Day Weather Forecast

Advertisements
Track Severe Weather on mobile